British Integrity — MGGF9 — position and weather

sailwx.info

Track history (hours):
 
Tides and Currents Weather Stations Pressure Air Temp Water Temp Dewpoint Dewpoint Depression Visibility Wind Speed Wind Dir Waves Ship Positions

British Integrity

Last reported at 2017-Sep-13 22:11 UTC. Time now 2017-Sep-20 23:35 UTC.
Position N 06°04' E 001°13'.

Type: Tanker. MMSI: 232366000.

Date/timePositionNaut miles runAvg speedWind from/ knotsBaromVisibWave heightAir tempDewpointWater temp
2017-Sep-13 22:11N 06°04' E 001°13'0 0.0
2017-Sep-13 21:59N 06°04' E 001°13'0 0.0
2017-Sep-13 20:17N 06°04' E 001°13'  
2017-Sep-06 01:06N 05°11' E 000°47'313.2
2017-Sep-06 00:51N 05°08' E 000°45'1213.1
2017-Sep-05 23:58N 04°59' E 000°38'613.2
2017-Sep-05 23:30N 04°54' E 000°35'713.4
2017-Sep-05 23:01N 04°48' E 000°31'913.6
2017-Sep-05 22:23N 04°41' E 000°27'513.2
2017-Sep-05 21:59N 04°37' E 000°24'  
Track history (hours):
 
Tides and Currents Weather Stations Pressure Air Temp Water Temp Dewpoint Dewpoint Depression Visibility Wind Speed Wind Dir Waves Ship Positions

British Integrity

Last reported at 2017-Sep-13 22:11 UTC. Time now 2017-Sep-20 23:35 UTC.
Position N 06°04' E 001°13'.

Type: Tanker. MMSI: 232366000.

Date/timePositionNaut miles runAvg speedWind from/ knotsBaromVisibWave heightAir tempDewpointWater temp
2017-Sep-13 22:11N 06°04' E 001°13'0 0.0
2017-Sep-13 21:59N 06°04' E 001°13'0 0.0
2017-Sep-13 20:17N 06°04' E 001°13'  
2017-Sep-06 01:06N 05°11' E 000°47'313.2
2017-Sep-06 00:51N 05°08' E 000°45'1213.1
2017-Sep-05 23:58N 04°59' E 000°38'613.2
2017-Sep-05 23:30N 04°54' E 000°35'713.4
2017-Sep-05 23:01N 04°48' E 000°31'913.6
2017-Sep-05 22:23N 04°41' E 000°27'513.2
2017-Sep-05 21:59N 04°37' E 000°24'  

Dump ship's entire track history